createdAt,value
2023-05-25T00:00:59.896Z,4.50
2023-05-25T00:03:28.451Z,4.83
2023-05-25T00:05:55.403Z,4.70
2023-05-25T00:08:21.955Z,4.33
2023-05-25T00:10:48.600Z,4.50
2023-05-25T00:13:15.145Z,4.53
2023-05-25T00:15:42.021Z,4.53
2023-05-25T00:18:08.833Z,4.80
2023-05-25T00:20:35.660Z,4.90
2023-05-25T00:23:05.326Z,4.30
2023-05-25T00:25:31.878Z,4.60
2023-05-25T00:27:58.502Z,4.23
2023-05-25T00:30:25.093Z,4.53
2023-05-25T00:32:51.703Z,4.13
2023-05-25T00:35:18.349Z,4.23
2023-05-25T00:37:45.443Z,4.63
2023-05-25T00:40:15.123Z,4.93
2023-05-25T00:42:41.909Z,4.50
2023-05-25T00:45:08.653Z,4.03
2023-05-25T00:47:35.688Z,4.33
2023-05-25T00:50:03.391Z,4.50
2023-05-25T00:52:30.178Z,4.53
2023-05-25T00:54:59.938Z,4.87
2023-05-25T00:57:28.367Z,4.83
2023-05-25T00:59:55.765Z,4.77
2023-05-25T01:02:24.524Z,4.90
2023-05-25T01:05:00.089Z,5.20
2023-05-25T01:07:27.992Z,4.97
2023-05-25T01:10:00.159Z,6.03
2023-05-25T01:12:27.790Z,5.37
2023-05-25T01:14:55.978Z,4.90
2023-05-25T01:17:25.516Z,5.07
2023-05-25T01:20:08.832Z,4.80
2023-05-25T01:22:45.815Z,4.73
2023-05-25T01:25:14.157Z,5.00
2023-05-25T01:27:43.708Z,4.07
2023-05-25T01:30:12.840Z,4.27
2023-05-25T01:32:40.762Z,4.53
2023-05-25T01:35:08.195Z,4.37
2023-05-25T01:37:39.754Z,4.43
2023-05-25T01:40:06.622Z,4.60
2023-05-25T01:42:33.220Z,4.63
2023-05-25T01:45:00.031Z,4.50
2023-05-25T01:47:26.758Z,4.70
2023-05-25T01:50:00.305Z,4.07
2023-05-25T01:52:28.652Z,4.23
2023-05-25T01:54:59.578Z,4.87
2023-05-25T01:57:26.582Z,4.57
2023-05-25T01:59:55.875Z,4.70
2023-05-25T02:02:22.735Z,4.47
2023-05-25T02:04:50.885Z,4.80
2023-05-25T02:07:17.575Z,4.70
2023-05-25T02:09:44.506Z,4.57
2023-05-25T02:12:11.591Z,4.40
2023-05-25T02:14:38.146Z,5.07
2023-05-25T02:17:04.895Z,4.77
2023-05-25T02:19:31.566Z,4.30
2023-05-25T02:22:01.170Z,4.97
2023-05-25T02:24:27.816Z,4.50
2023-05-25T02:26:54.865Z,5.27
2023-05-25T02:29:21.898Z,5.07
2023-05-25T02:31:48.637Z,5.00
2023-05-25T02:34:15.707Z,5.20
2023-05-25T02:36:43.459Z,6.00
2023-05-25T02:39:10.556Z,5.50
2023-05-25T02:41:38.669Z,5.83
2023-05-25T02:44:07.114Z,5.60
2023-05-25T02:46:33.937Z,5.00
2023-05-25T02:49:00.899Z,5.13
2023-05-25T02:51:28.382Z,5.10
2023-05-25T02:53:57.185Z,5.20
2023-05-25T02:56:23.769Z,5.20
2023-05-25T02:58:50.856Z,5.40
2023-05-25T03:01:26.110Z,5.40
2023-05-25T03:03:54.860Z,5.47
2023-05-25T03:06:26.293Z,5.40
2023-05-25T03:09:06.256Z,5.00
2023-05-25T03:11:33.033Z,5.40
2023-05-25T03:14:00.594Z,5.13
2023-05-25T03:16:29.064Z,5.30
2023-05-25T03:18:55.925Z,5.10
2023-05-25T03:21:23.835Z,5.23
2023-05-25T03:23:50.565Z,5.20
2023-05-25T03:26:17.661Z,5.07
2023-05-25T03:28:49.293Z,4.93
2023-05-25T03:31:15.949Z,4.97
2023-05-25T03:33:44.434Z,5.73
2023-05-25T03:36:12.379Z,5.00
2023-05-25T03:38:39.079Z,5.17
2023-05-25T03:41:06.005Z,4.80
2023-05-25T03:43:32.693Z,4.63
2023-05-25T03:45:59.538Z,4.60
2023-05-25T03:48:26.303Z,4.67
2023-05-25T03:50:53.643Z,4.40
2023-05-25T03:53:21.913Z,4.93
2023-05-25T03:55:52.008Z,4.23
2023-05-25T03:58:18.769Z,4.50
2023-05-25T04:00:46.372Z,4.33
2023-05-25T04:03:13.819Z,3.87
2023-05-25T04:05:42.186Z,5.03
2023-05-25T04:08:09.953Z,4.30
2023-05-25T04:10:36.959Z,4.47
2023-05-25T04:13:03.548Z,4.00
2023-05-25T04:15:30.622Z,4.20
2023-05-25T04:18:05.662Z,4.07
2023-05-25T04:20:32.327Z,4.30
2023-05-25T04:22:59.496Z,3.90
2023-05-25T04:25:27.987Z,4.93
2023-05-25T04:27:56.861Z,4.37
2023-05-25T04:30:43.557Z,4.17
2023-05-25T04:33:29.859Z,4.40
2023-05-25T04:36:02.208Z,4.90
2023-05-25T04:38:30.834Z,4.57
2023-05-25T04:41:02.012Z,5.17
2023-05-25T04:43:30.005Z,4.80
2023-05-25T04:45:59.775Z,4.80
2023-05-25T04:48:28.608Z,4.97
2023-05-25T04:50:58.176Z,5.10
2023-05-25T04:53:24.826Z,5.30
2023-05-25T04:55:51.788Z,5.20
2023-05-25T04:58:18.528Z,5.23
2023-05-25T05:00:45.513Z,4.83
2023-05-25T05:03:13.844Z,4.90
2023-05-25T05:05:40.759Z,4.77
2023-05-25T05:08:11.216Z,5.00
2023-05-25T05:10:37.909Z,5.07
2023-05-25T05:13:04.761Z,5.73
2023-05-25T05:15:32.214Z,5.40
2023-05-25T05:17:59.575Z,5.80
2023-05-25T05:20:26.347Z,5.60
2023-05-25T05:22:53.495Z,5.93
2023-05-25T05:25:20.479Z,5.73
2023-05-25T05:27:47.598Z,5.93
2023-05-25T05:30:37.098Z,5.90
2023-05-25T05:33:03.981Z,5.63
2023-05-25T05:35:36.025Z,5.90
2023-05-25T05:38:12.384Z,6.53
2023-05-25T05:40:38.989Z,5.40
2023-05-25T05:43:06.974Z,5.60
2023-05-25T05:45:33.878Z,5.60
2023-05-25T05:48:00.601Z,5.70
2023-05-25T05:50:28.034Z,4.90
2023-05-25T05:52:54.758Z,5.90
2023-05-25T05:55:21.601Z,4.80
2023-05-25T05:57:51.086Z,5.17
2023-05-25T06:00:18.843Z,4.63
2023-05-25T06:02:45.684Z,4.83
2023-05-25T06:05:18.374Z,4.53
2023-05-25T06:07:45.128Z,4.47
2023-05-25T06:10:12.764Z,4.40
2023-05-25T06:12:39.574Z,4.20
2023-05-25T06:15:07.519Z,5.30
2023-05-25T06:17:37.284Z,4.70
2023-05-25T06:20:04.919Z,5.20
2023-05-25T06:22:33.438Z,4.37
2023-05-25T06:25:00.921Z,5.40
2023-05-25T06:27:27.765Z,4.33
2023-05-25T06:29:54.749Z,4.77
2023-05-25T06:32:21.442Z,5.00
2023-05-25T06:34:48.952Z,4.70
2023-05-25T06:37:16.631Z,4.67
2023-05-25T06:39:43.455Z,4.70
2023-05-25T06:42:11.804Z,4.30
2023-05-25T06:44:49.794Z,4.10
2023-05-25T06:47:16.368Z,4.20
2023-05-25T06:49:42.938Z,4.77
2023-05-25T06:52:09.544Z,4.70
2023-05-25T06:54:36.162Z,4.70
2023-05-25T06:57:03.021Z,4.60
2023-05-25T06:59:29.641Z,4.47
2023-05-25T07:01:56.414Z,4.27
2023-05-25T07:04:23.306Z,4.83
2023-05-25T07:06:49.916Z,4.50
2023-05-25T07:09:17.339Z,4.70
2023-05-25T07:11:43.949Z,4.53
2023-05-25T07:14:10.745Z,4.67
2023-05-25T07:16:37.436Z,5.10
2023-05-25T07:19:04.031Z,5.03
2023-05-25T07:21:33.759Z,4.07
2023-05-25T07:24:00.771Z,4.37
2023-05-25T07:26:27.980Z,4.83
2023-05-25T07:28:54.688Z,4.80
2023-05-25T07:31:21.398Z,4.20
2023-05-25T07:33:48.142Z,4.37
2023-05-25T07:36:14.772Z,4.50
2023-05-25T07:38:42.215Z,4.37
2023-05-25T07:41:08.817Z,4.30
2023-05-25T07:43:36.074Z,4.90
2023-05-25T07:46:02.767Z,4.50
2023-05-25T07:48:29.432Z,4.40
2023-05-25T07:50:56.533Z,4.20
2023-05-25T07:53:23.334Z,4.87
2023-05-25T07:55:49.893Z,4.03
2023-05-25T07:58:16.685Z,4.40
2023-05-25T08:00:43.991Z,4.47
2023-05-25T08:03:11.275Z,4.10
2023-05-25T08:05:38.086Z,4.10
2023-05-25T08:08:04.630Z,4.33
2023-05-25T08:10:34.733Z,4.40
2023-05-25T08:13:01.327Z,4.57
2023-05-25T08:15:28.065Z,4.60
2023-05-25T08:17:56.579Z,4.47
2023-05-25T08:20:24.928Z,4.60
2023-05-25T08:22:53.619Z,4.70
2023-05-25T08:25:20.763Z,4.53
2023-05-25T08:27:47.444Z,4.37
2023-05-25T08:30:14.098Z,4.37
2023-05-25T08:32:40.781Z,3.90
2023-05-25T08:35:08.063Z,4.00
2023-05-25T08:37:35.669Z,4.20
2023-05-25T08:40:02.772Z,4.03
2023-05-25T08:42:29.507Z,4.10
2023-05-25T08:44:56.946Z,4.73
2023-05-25T08:47:23.716Z,4.30
2023-05-25T08:49:51.060Z,3.80
2023-05-25T08:52:21.347Z,3.70
2023-05-25T08:54:50.234Z,3.80
2023-05-25T08:57:29.959Z,5.03
2023-05-25T09:00:11.488Z,5.27
2023-05-25T09:02:38.144Z,4.20
2023-05-25T09:05:05.071Z,4.27
2023-05-25T09:07:32.277Z,3.83
2023-05-25T09:10:01.165Z,3.97
2023-05-25T09:12:30.782Z,4.13
2023-05-25T09:14:57.915Z,4.40
2023-05-25T09:17:24.718Z,4.30
2023-05-25T09:19:51.456Z,4.10
2023-05-25T09:22:18.190Z,4.00
2023-05-25T09:24:45.420Z,4.20
2023-05-25T09:27:13.286Z,4.20
2023-05-25T09:29:39.867Z,3.37
2023-05-25T09:32:06.948Z,3.83
2023-05-25T09:34:36.302Z,3.40
2023-05-25T09:37:13.506Z,3.73
2023-05-25T09:39:43.985Z,3.40
2023-05-25T09:42:11.086Z,4.13
2023-05-25T09:44:37.949Z,4.00
2023-05-25T09:47:04.748Z,3.83
2023-05-25T09:49:31.446Z,3.50
2023-05-25T09:51:58.106Z,3.53
2023-05-25T09:54:25.602Z,3.03
2023-05-25T09:56:52.172Z,3.90
2023-05-25T09:59:18.770Z,3.40
2023-05-25T10:01:45.484Z,3.50
2023-05-25T10:04:15.861Z,3.00
2023-05-25T10:06:43.227Z,3.30
2023-05-25T10:09:11.292Z,3.87
2023-05-25T10:11:39.099Z,3.70
2023-05-25T10:14:07.109Z,3.00
2023-05-25T10:16:34.872Z,3.33
2023-05-25T10:19:04.655Z,3.70
2023-05-25T10:21:31.715Z,3.10
2023-05-25T10:24:03.640Z,3.17
2023-05-25T10:26:33.494Z,3.60
2023-05-25T10:29:01.620Z,3.13
2023-05-25T10:31:30.064Z,3.03
2023-05-25T10:33:57.281Z,3.40
2023-05-25T10:36:25.406Z,3.27
2023-05-25T10:38:52.145Z,3.17
2023-05-25T10:41:20.262Z,2.93
2023-05-25T10:43:47.285Z,3.33
2023-05-25T10:46:15.238Z,3.03
2023-05-25T10:48:48.940Z,3.10
2023-05-25T10:51:15.787Z,3.07
2023-05-25T10:53:46.288Z,3.13
2023-05-25T10:56:13.559Z,2.73
2023-05-25T10:58:46.536Z,2.80
2023-05-25T11:01:14.573Z,2.80
2023-05-25T11:03:44.227Z,2.70
2023-05-25T11:06:17.685Z,2.93
2023-05-25T11:08:59.041Z,3.07
2023-05-25T11:11:43.722Z,2.60
2023-05-25T11:14:23.782Z,3.10
2023-05-25T11:17:10.588Z,3.17
2023-05-25T11:19:45.808Z,3.10
2023-05-25T11:22:19.262Z,2.80
2023-05-25T11:24:47.084Z,3.00
2023-05-25T11:27:13.671Z,3.23
2023-05-25T11:29:41.056Z,2.80
2023-05-25T11:32:14.500Z,3.63
2023-05-25T11:34:46.969Z,2.43
2023-05-25T11:37:16.824Z,3.33
2023-05-25T11:39:46.830Z,3.30
2023-05-25T11:42:15.194Z,3.00
2023-05-25T11:44:42.344Z,2.83
2023-05-25T11:47:18.903Z,2.70
2023-05-25T11:49:47.211Z,3.00
2023-05-25T11:52:14.583Z,2.73
2023-05-25T11:54:41.699Z,3.10
2023-05-25T11:57:18.814Z,3.70
2023-05-25T11:59:49.977Z,3.27
2023-05-25T12:02:16.893Z,3.30
2023-05-25T12:04:52.956Z,2.73
2023-05-25T12:07:19.659Z,2.93
2023-05-25T12:09:46.359Z,3.13
2023-05-25T12:12:13.228Z,3.00
2023-05-25T12:14:49.513Z,3.23
2023-05-25T12:17:21.158Z,3.13
2023-05-25T12:19:48.118Z,3.50
2023-05-25T12:22:14.802Z,2.80
2023-05-25T12:24:41.448Z,3.00
2023-05-25T12:27:18.179Z,3.07
2023-05-25T12:29:48.011Z,2.70
2023-05-25T12:32:15.080Z,3.33
2023-05-25T12:34:41.798Z,3.20
2023-05-25T12:37:21.384Z,2.83
2023-05-25T12:39:48.511Z,2.67
2023-05-25T12:42:15.927Z,3.20
2023-05-25T12:44:43.028Z,3.10
2023-05-25T12:47:14.109Z,3.10
2023-05-25T12:49:41.897Z,3.50
2023-05-25T12:52:08.768Z,3.23
2023-05-25T12:54:44.499Z,3.33
2023-05-25T12:57:12.187Z,3.23
2023-05-25T12:59:39.224Z,3.30
2023-05-25T13:02:07.244Z,3.20
2023-05-25T13:04:34.617Z,2.87
2023-05-25T13:07:01.991Z,3.13
2023-05-25T13:09:28.717Z,3.00
2023-05-25T13:11:55.848Z,3.20
2023-05-25T13:14:26.257Z,2.97
2023-05-25T13:16:53.602Z,2.87
2023-05-25T13:19:21.032Z,3.00
2023-05-25T13:21:49.325Z,2.80
2023-05-25T13:24:16.739Z,2.90
2023-05-25T13:26:46.443Z,3.47
2023-05-25T13:29:14.050Z,3.10
2023-05-25T13:31:41.619Z,3.10
2023-05-25T13:34:08.305Z,3.03
2023-05-25T13:36:34.970Z,3.07
2023-05-25T13:39:01.870Z,3.43
2023-05-25T13:41:28.526Z,3.00
2023-05-25T13:43:55.161Z,2.90
2023-05-25T13:46:33.455Z,3.20
2023-05-25T13:49:00.586Z,3.20
2023-05-25T13:51:27.247Z,3.30
2023-05-25T13:53:54.079Z,2.80
2023-05-25T13:56:20.783Z,3.10
2023-05-25T13:58:47.498Z,3.03
2023-05-25T14:01:14.214Z,3.13
2023-05-25T14:03:40.917Z,2.80
2023-05-25T14:06:07.584Z,3.40
2023-05-25T14:08:34.240Z,3.10
2023-05-25T14:11:00.943Z,3.20
2023-05-25T14:13:27.548Z,3.20
2023-05-25T14:15:54.233Z,2.90
2023-05-25T14:18:21.571Z,3.00
2023-05-25T14:20:48.389Z,3.00
2023-05-25T14:23:18.162Z,2.90
2023-05-25T14:25:45.596Z,2.77
2023-05-25T14:28:12.559Z,3.10
2023-05-25T14:30:39.208Z,3.23
2023-05-25T14:33:06.066Z,2.80
2023-05-25T14:35:32.737Z,2.90
2023-05-25T14:37:59.367Z,3.20
2023-05-25T14:40:25.982Z,3.67
2023-05-25T14:42:55.482Z,3.20
2023-05-25T14:45:22.264Z,3.30
2023-05-25T14:47:49.154Z,3.30
2023-05-25T14:50:17.276Z,3.53
2023-05-25T14:52:43.920Z,3.27
2023-05-25T14:55:10.589Z,3.37
2023-05-25T14:57:37.201Z,3.27
2023-05-25T15:00:04.470Z,3.70
2023-05-25T15:02:31.281Z,3.70
2023-05-25T15:04:58.682Z,3.23
2023-05-25T15:07:25.934Z,3.60
2023-05-25T15:09:52.587Z,3.50
2023-05-25T15:12:19.218Z,3.30
2023-05-25T15:14:45.894Z,3.70
2023-05-25T15:17:12.515Z,3.37
2023-05-25T15:19:39.254Z,3.70
2023-05-25T15:22:06.729Z,3.70
2023-05-25T15:24:33.336Z,3.67
2023-05-25T15:26:59.982Z,3.47
2023-05-25T15:29:26.807Z,3.40
2023-05-25T15:31:56.158Z,3.83
2023-05-25T15:34:22.764Z,3.60
2023-05-25T15:36:49.405Z,3.73
2023-05-25T15:39:15.989Z,3.90
2023-05-25T15:41:42.657Z,3.67
2023-05-25T15:44:12.691Z,3.60
2023-05-25T15:46:42.429Z,3.87
2023-05-25T15:49:12.121Z,4.00
2023-05-25T15:51:41.968Z,4.10
2023-05-25T15:54:11.078Z,4.30
2023-05-25T15:56:39.388Z,3.47
2023-05-25T15:59:06.093Z,3.70
2023-05-25T16:01:34.468Z,4.03
2023-05-25T16:04:01.329Z,3.80
2023-05-25T16:06:28.182Z,4.03
2023-05-25T16:08:57.064Z,3.40
2023-05-25T16:11:24.110Z,3.90
2023-05-25T16:13:50.673Z,4.00
2023-05-25T16:16:19.170Z,3.77
2023-05-25T16:18:46.278Z,3.90
2023-05-25T16:21:13.293Z,4.10
2023-05-25T16:23:40.119Z,4.20
2023-05-25T16:26:09.964Z,3.97
2023-05-25T16:28:37.087Z,3.87
2023-05-25T16:31:05.192Z,4.10
2023-05-25T16:33:34.591Z,3.87
2023-05-25T16:36:01.469Z,3.90
2023-05-25T16:38:28.165Z,3.77
2023-05-25T16:40:54.898Z,4.00
2023-05-25T16:43:25.027Z,4.10
2023-05-25T16:45:52.528Z,3.70
2023-05-25T16:48:20.847Z,4.00
2023-05-25T16:50:49.061Z,3.50
2023-05-25T16:53:15.647Z,3.90
2023-05-25T16:55:42.364Z,3.73
2023-05-25T16:58:09.094Z,3.97
2023-05-25T17:00:35.848Z,3.80
2023-05-25T17:03:02.476Z,4.23
2023-05-25T17:05:29.202Z,3.90
2023-05-25T17:07:55.846Z,3.43
2023-05-25T17:10:22.423Z,3.23
2023-05-25T17:12:48.989Z,3.97
2023-05-25T17:15:16.281Z,3.87
2023-05-25T17:17:43.302Z,3.53
2023-05-25T17:20:10.921Z,4.10
2023-05-25T17:22:38.037Z,3.93
2023-05-25T17:25:05.615Z,3.63
2023-05-25T17:27:32.235Z,3.63
2023-05-25T17:29:58.928Z,4.20
2023-05-25T17:32:25.724Z,3.37
2023-05-25T17:34:52.377Z,3.57
2023-05-25T17:37:19.742Z,3.50
2023-05-25T17:39:47.613Z,4.50
2023-05-25T17:42:14.190Z,3.70
2023-05-25T17:44:42.398Z,3.80
2023-05-25T17:47:10.926Z,4.03
2023-05-25T17:49:38.072Z,3.97
2023-05-25T17:52:04.834Z,3.97
2023-05-25T17:54:31.388Z,3.90
2023-05-25T17:56:58.008Z,4.07
2023-05-25T17:59:24.684Z,4.23
2023-05-25T18:01:51.498Z,3.87
2023-05-25T18:04:19.662Z,4.23
2023-05-25T18:06:46.844Z,3.70
2023-05-25T18:09:13.437Z,3.93
2023-05-25T18:11:39.998Z,4.73
2023-05-25T18:14:06.914Z,4.17
2023-05-25T18:16:33.776Z,4.10
2023-05-25T18:19:00.367Z,3.90
2023-05-25T18:21:26.950Z,4.90
2023-05-25T18:23:53.554Z,5.07
2023-05-25T18:26:20.170Z,4.67
2023-05-25T18:28:46.838Z,4.50
2023-05-25T18:31:13.420Z,4.47
2023-05-25T18:33:41.205Z,4.60
2023-05-25T18:36:07.979Z,4.30
2023-05-25T18:38:34.544Z,4.50
2023-05-25T18:41:01.187Z,5.00
2023-05-25T18:43:27.782Z,4.70
2023-05-25T18:45:54.323Z,5.10
2023-05-25T18:48:21.158Z,7.97
2023-05-25T18:50:47.726Z,9.17
2023-05-25T18:53:14.347Z,8.00
2023-05-25T18:55:41.032Z,8.43
2023-05-25T18:58:07.740Z,8.00
2023-05-25T19:01:20.723Z,6.97
2023-05-25T19:03:47.504Z,6.00
2023-05-25T19:06:14.211Z,6.03
2023-05-25T19:08:40.892Z,5.43
2023-05-25T19:11:07.460Z,5.40
2023-05-25T19:13:34.008Z,5.17
2023-05-25T19:16:01.321Z,5.00
2023-05-25T19:18:27.958Z,4.67
2023-05-25T19:20:54.530Z,4.63
2023-05-25T19:23:21.154Z,4.60
2023-05-25T19:25:47.832Z,4.33
2023-05-25T19:28:14.576Z,4.40
2023-05-25T19:30:41.326Z,4.00
2023-05-25T19:33:07.984Z,4.60
2023-05-25T19:35:34.676Z,5.00
2023-05-25T19:38:02.288Z,4.30
2023-05-25T19:40:29.092Z,4.80
2023-05-25T19:42:55.726Z,4.60
2023-05-25T19:45:22.359Z,4.70
2023-05-25T19:47:49.078Z,5.07
2023-05-25T19:50:15.696Z,4.70
2023-05-25T19:52:42.365Z,5.10
2023-05-25T19:55:08.932Z,4.63
2023-05-25T19:57:35.521Z,4.90
2023-05-25T20:00:02.341Z,4.60
2023-05-25T20:02:38.340Z,5.10
2023-05-25T20:05:05.960Z,5.20
2023-05-25T20:07:32.604Z,4.90
2023-05-25T20:09:59.232Z,5.13
2023-05-25T20:12:25.859Z,5.27
2023-05-25T20:14:52.573Z,5.23
2023-05-25T20:17:19.107Z,5.50
2023-05-25T20:19:45.687Z,5.70
2023-05-25T20:22:12.275Z,4.70
2023-05-25T20:24:38.885Z,5.00
2023-05-25T20:27:06.057Z,5.13
2023-05-25T20:29:32.775Z,5.50
2023-05-25T20:31:59.463Z,5.03
2023-05-25T20:34:26.093Z,5.57
2023-05-25T20:36:52.663Z,5.77
2023-05-25T20:39:19.534Z,4.73
2023-05-25T20:41:46.125Z,4.90
2023-05-25T20:44:14.092Z,5.00
2023-05-25T20:46:41.185Z,5.20
2023-05-25T20:49:07.795Z,5.30
2023-05-25T20:51:34.380Z,5.23
2023-05-25T20:54:01.018Z,5.17
2023-05-25T20:56:27.842Z,5.90
2023-05-25T20:58:54.576Z,5.30
2023-05-25T21:01:21.326Z,5.40
2023-05-25T21:03:48.097Z,5.80
2023-05-25T21:06:14.919Z,5.63
2023-05-25T21:08:41.524Z,4.90
2023-05-25T21:11:08.777Z,5.53
2023-05-25T21:13:35.343Z,5.40
2023-05-25T21:16:02.050Z,5.10
2023-05-25T21:18:28.692Z,5.70
2023-05-25T21:20:55.300Z,5.47
2023-05-25T21:23:21.929Z,5.20
2023-05-25T21:25:48.756Z,5.80
2023-05-25T21:28:15.504Z,5.53
2023-05-25T21:30:42.112Z,5.90
2023-05-25T21:33:08.895Z,5.83
2023-05-25T21:35:35.540Z,5.83
2023-05-25T21:38:02.114Z,5.63
2023-05-25T21:40:28.753Z,5.73
2023-05-25T21:42:56.066Z,6.17
2023-05-25T21:45:22.764Z,5.60
2023-05-25T21:47:49.467Z,5.97
2023-05-25T21:50:16.306Z,5.97
2023-05-25T21:52:42.921Z,5.80
2023-05-25T21:55:09.660Z,5.60
2023-05-25T21:57:36.514Z,5.87
2023-05-25T22:00:03.886Z,5.63
2023-05-25T22:02:39.345Z,5.87
2023-05-25T22:05:06.078Z,5.60
2023-05-25T22:07:32.700Z,5.73
2023-05-25T22:09:59.284Z,6.57
2023-05-25T22:12:25.874Z,6.50
2023-05-25T22:14:52.570Z,5.87
2023-05-25T22:17:19.374Z,6.20
2023-05-25T22:19:52.100Z,5.73
2023-05-25T22:22:25.901Z,6.27
2023-05-25T22:24:52.458Z,6.50
2023-05-25T22:27:19.043Z,6.13
2023-05-25T22:29:45.721Z,6.10
2023-05-25T22:32:12.356Z,5.43
2023-05-25T22:34:38.993Z,6.27
2023-05-25T22:37:05.635Z,6.00
2023-05-25T22:39:32.353Z,5.67
2023-05-25T22:41:59.062Z,5.90
2023-05-25T22:44:25.944Z,6.20
2023-05-25T22:46:52.707Z,6.00
2023-05-25T22:49:19.352Z,6.73
2023-05-25T22:51:46.048Z,5.73
2023-05-25T22:54:13.399Z,5.93
2023-05-25T22:56:39.986Z,5.97
2023-05-25T22:59:06.662Z,5.37
2023-05-25T23:01:33.345Z,5.57
2023-05-25T23:04:00.113Z,5.40
2023-05-25T23:06:26.836Z,5.77
2023-05-25T23:08:53.494Z,5.60
2023-05-25T23:11:20.143Z,5.50
2023-05-25T23:13:46.811Z,5.97
2023-05-25T23:16:15.414Z,6.07
2023-05-25T23:18:42.555Z,5.57
2023-05-25T23:21:09.400Z,6.00
2023-05-25T23:23:36.154Z,6.07
2023-05-25T23:26:03.124Z,6.70
2023-05-25T23:28:29.793Z,5.93
2023-05-25T23:30:56.616Z,5.83
2023-05-25T23:33:23.267Z,5.40
2023-05-25T23:35:49.815Z,6.30
2023-05-25T23:38:16.416Z,5.70
2023-05-25T23:40:42.994Z,5.63
2023-05-25T23:43:09.644Z,6.03
2023-05-25T23:45:36.345Z,6.00
2023-05-25T23:48:03.065Z,5.97
2023-05-25T23:50:29.654Z,6.23
2023-05-25T23:52:56.477Z,5.33
2023-05-25T23:55:23.154Z,5.90
2023-05-25T23:57:49.830Z,5.60
